createdAt,value
2024-01-26T00:00:05.954Z,38.2080
2024-01-26T00:00:17.022Z,38.1910
2024-01-26T00:00:28.172Z,38.1970
2024-01-26T00:00:39.294Z,38.2010
2024-01-26T00:00:50.614Z,38.2010
2024-01-26T00:01:02.366Z,38.2350
2024-01-26T00:01:13.895Z,38.2520
2024-01-26T00:01:25.162Z,38.2240
2024-01-26T00:01:36.668Z,38.2240
2024-01-26T00:01:47.779Z,38.2180
2024-01-26T00:01:58.924Z,38.2120
2024-01-26T00:02:09.976Z,38.1910
2024-01-26T00:02:21.025Z,38.1860
2024-01-26T00:02:32.248Z,38.1820
2024-01-26T00:02:43.745Z,38.2120
2024-01-26T00:02:55.234Z,38.2070
2024-01-26T00:03:06.337Z,38.2290
2024-01-26T00:03:17.439Z,38.2070
2024-01-26T00:03:28.619Z,38.1950
2024-01-26T00:03:40.151Z,38.2140
2024-01-26T00:03:51.646Z,38.2140
2024-01-26T00:04:03.800Z,38.2310
2024-01-26T00:04:15.386Z,38.2200
2024-01-26T00:04:26.689Z,38.2200
2024-01-26T00:04:38.209Z,38.2180
2024-01-26T00:04:49.934Z,38.2410
2024-01-26T00:05:01.247Z,38.2350
2024-01-26T00:05:12.444Z,38.2350
2024-01-26T00:05:23.508Z,38.2350
2024-01-26T00:05:34.562Z,38.2240
2024-01-26T00:05:45.748Z,38.2240
2024-01-26T00:05:56.900Z,38.2120
2024-01-26T00:06:08.118Z,38.2350
2024-01-26T00:06:19.590Z,38.2240
2024-01-26T00:06:30.998Z,38.2350
2024-01-26T00:06:42.974Z,38.2520
2024-01-26T00:06:55.673Z,38.3050
2024-01-26T00:07:06.918Z,38.2580
2024-01-26T00:07:18.110Z,38.2350
2024-01-26T00:07:29.306Z,38.2180
2024-01-26T00:07:40.635Z,38.2070
2024-01-26T00:07:51.860Z,38.2120
2024-01-26T00:08:02.910Z,38.1860
2024-01-26T00:08:13.939Z,38.1860
2024-01-26T00:08:24.995Z,38.1800
2024-01-26T00:08:36.051Z,38.1860
2024-01-26T00:08:47.117Z,38.1800
2024-01-26T00:08:58.169Z,38.1880
2024-01-26T00:09:09.224Z,38.1820
2024-01-26T00:09:20.319Z,38.1820
2024-01-26T00:09:31.411Z,38.2010
2024-01-26T00:09:42.492Z,38.1860
2024-01-26T00:09:53.653Z,38.1630
2024-01-26T00:10:04.892Z,38.1680
2024-01-26T00:10:15.971Z,38.1740
2024-01-26T00:10:27.006Z,38.1630
2024-01-26T00:10:38.067Z,38.1500
2024-01-26T00:10:49.120Z,38.1630
2024-01-26T00:11:00.193Z,38.1570
2024-01-26T00:11:11.222Z,38.1440
2024-01-26T00:11:22.291Z,38.1360
2024-01-26T00:11:33.369Z,38.1470
2024-01-26T00:11:44.443Z,38.1360
2024-01-26T00:11:55.562Z,38.1470
2024-01-26T00:12:06.644Z,38.1300
2024-01-26T00:12:17.809Z,38.1470
2024-01-26T00:12:28.899Z,38.1360
2024-01-26T00:12:39.968Z,38.1300
2024-01-26T00:12:51.020Z,38.1110
2024-01-26T00:13:02.075Z,38.1050
2024-01-26T00:13:13.145Z,38.0940
2024-01-26T00:13:24.201Z,38.0940
2024-01-26T00:13:35.254Z,38.0820
2024-01-26T00:13:46.306Z,38.0880
2024-01-26T00:13:57.423Z,38.0770
2024-01-26T00:14:08.480Z,38.0770
2024-01-26T00:14:19.506Z,38.0820
2024-01-26T00:14:30.584Z,38.0880
2024-01-26T00:14:41.663Z,38.0820
2024-01-26T00:14:52.713Z,38.0890
2024-01-26T00:15:03.784Z,38.0890
2024-01-26T00:15:14.845Z,38.0890
2024-01-26T00:15:25.940Z,38.1000
2024-01-26T00:15:37.024Z,38.0980
2024-01-26T00:15:48.090Z,38.1040
2024-01-26T00:15:59.245Z,38.1040
2024-01-26T00:16:11.112Z,38.1380
2024-01-26T00:16:22.172Z,38.1270
2024-01-26T00:16:33.229Z,38.1100
2024-01-26T00:16:44.264Z,38.1100
2024-01-26T00:16:55.338Z,38.1000
2024-01-26T00:17:06.406Z,38.1040
2024-01-26T00:17:17.451Z,38.1040
2024-01-26T00:17:28.527Z,38.1150
2024-01-26T00:17:39.584Z,38.1210
2024-01-26T00:17:50.604Z,38.1210
2024-01-26T00:18:01.672Z,38.1150
2024-01-26T00:18:12.764Z,38.1040
2024-01-26T00:18:23.915Z,38.1150
2024-01-26T00:18:35.117Z,38.0980
2024-01-26T00:18:46.163Z,38.0870
2024-01-26T00:18:57.287Z,38.0940
2024-01-26T00:19:08.517Z,38.0890
2024-01-26T00:19:19.899Z,38.0930
2024-01-26T00:19:30.976Z,38.0930
2024-01-26T00:19:42.039Z,38.0930
2024-01-26T00:19:53.116Z,38.0870
2024-01-26T00:20:04.164Z,38.0870
2024-01-26T00:20:15.230Z,38.0870
2024-01-26T00:20:27.433Z,38.0750
2024-01-26T00:20:39.243Z,38.1500
2024-01-26T00:20:50.299Z,38.1100
2024-01-26T00:21:01.340Z,38.0980
2024-01-26T00:21:12.383Z,38.0680
2024-01-26T00:21:23.463Z,38.0540
2024-01-26T00:21:34.598Z,38.0540
2024-01-26T00:21:45.659Z,38.0620
2024-01-26T00:21:56.728Z,38.0490
2024-01-26T00:22:07.796Z,38.0430
2024-01-26T00:22:18.839Z,38.0620
2024-01-26T00:22:29.891Z,38.0620
2024-01-26T00:22:40.945Z,38.0570
2024-01-26T00:22:52.011Z,38.0450
2024-01-26T00:23:03.451Z,38.0680
2024-01-26T00:23:14.505Z,38.0570
2024-01-26T00:23:25.553Z,38.0570
2024-01-26T00:23:36.624Z,38.0450
2024-01-26T00:23:47.678Z,38.0400
2024-01-26T00:23:58.717Z,38.0400
2024-01-26T00:24:09.796Z,38.0400
2024-01-26T00:24:23.129Z,38.0450
2024-01-26T00:24:35.341Z,38.1630
2024-01-26T00:24:46.437Z,38.1010
2024-01-26T00:24:58.133Z,38.0870
2024-01-26T00:25:09.229Z,38.0680
2024-01-26T00:25:20.346Z,38.0400
2024-01-26T00:25:31.399Z,38.0220
2024-01-26T00:25:42.439Z,38.0340
2024-01-26T00:25:53.528Z,38.0220
2024-01-26T00:26:04.590Z,38.0170
2024-01-26T00:26:15.636Z,37.9960
2024-01-26T00:26:26.715Z,37.9840
2024-01-26T00:26:37.736Z,37.9900
2024-01-26T00:26:48.786Z,37.9790
2024-01-26T00:26:59.842Z,37.9790
2024-01-26T00:27:10.904Z,37.9730
2024-01-26T00:27:21.993Z,37.9730
2024-01-26T00:27:33.067Z,37.9730
2024-01-26T00:27:44.141Z,37.9610
2024-01-26T00:27:55.394Z,37.9610
2024-01-26T00:28:06.461Z,37.9500
2024-01-26T00:28:17.504Z,37.9560
2024-01-26T00:28:28.569Z,37.9420
2024-01-26T00:28:39.627Z,37.9420
2024-01-26T00:28:50.676Z,37.9500
2024-01-26T00:29:01.734Z,37.9370
2024-01-26T00:29:12.784Z,37.9310
2024-01-26T00:29:23.901Z,37.9420
2024-01-26T00:29:34.956Z,37.9250
2024-01-26T00:29:46.038Z,37.9080
2024-01-26T00:29:57.080Z,37.9020
2024-01-26T00:30:08.168Z,37.8910
2024-01-26T00:30:19.545Z,37.8960
2024-01-26T00:30:30.928Z,37.9250
2024-01-26T00:30:42.008Z,37.9140
2024-01-26T00:30:53.104Z,37.9140
2024-01-26T00:31:04.269Z,37.9080
2024-01-26T00:31:15.399Z,37.9200
2024-01-26T00:31:26.461Z,37.9310
2024-01-26T00:31:37.517Z,37.9370
2024-01-26T00:31:48.544Z,37.9260
2024-01-26T00:31:59.594Z,37.9080
2024-01-26T00:32:10.693Z,37.9140
2024-01-26T00:32:21.732Z,37.8800
2024-01-26T00:32:32.829Z,37.8910
2024-01-26T00:32:43.953Z,37.8910
2024-01-26T00:32:55.016Z,37.8910
2024-01-26T00:33:06.126Z,37.8800
2024-01-26T00:33:17.258Z,37.8800
2024-01-26T00:33:28.366Z,37.8910
2024-01-26T00:33:39.525Z,37.8800
2024-01-26T00:33:50.641Z,37.8740
2024-01-26T00:34:02.230Z,37.9080
2024-01-26T00:34:13.405Z,37.8940
2024-01-26T00:34:24.527Z,37.9070
2024-01-26T00:34:35.837Z,37.9030
2024-01-26T00:34:47.167Z,37.8860
2024-01-26T00:34:58.343Z,37.8880
2024-01-26T00:35:09.505Z,37.8940
2024-01-26T00:35:20.627Z,37.9010
2024-01-26T00:35:31.694Z,37.8820
2024-01-26T00:35:42.758Z,37.8710
2024-01-26T00:35:53.806Z,37.8880
2024-01-26T00:36:04.861Z,37.9010
2024-01-26T00:36:15.978Z,37.9010
2024-01-26T00:36:27.087Z,37.8820
2024-01-26T00:36:38.147Z,37.9010
2024-01-26T00:36:49.217Z,37.8710
2024-01-26T00:37:00.341Z,37.8710
2024-01-26T00:37:11.481Z,37.8760
2024-01-26T00:37:22.589Z,37.8710
2024-01-26T00:37:33.624Z,37.8590
2024-01-26T00:37:44.676Z,37.8540
2024-01-26T00:37:55.731Z,37.8590
2024-01-26T00:38:06.793Z,37.8590
2024-01-26T00:38:17.854Z,37.8440
2024-01-26T00:38:28.906Z,37.8380
2024-01-26T00:38:39.957Z,37.8330
2024-01-26T00:38:51.008Z,37.8210
2024-01-26T00:39:02.064Z,37.8100
2024-01-26T00:39:13.148Z,37.8160
2024-01-26T00:39:24.219Z,37.8040
2024-01-26T00:39:35.352Z,37.8040
2024-01-26T00:39:46.428Z,37.8210
2024-01-26T00:39:57.632Z,37.8100
2024-01-26T00:40:08.761Z,37.8040
2024-01-26T00:40:19.828Z,37.7930
2024-01-26T00:40:30.892Z,37.7930
2024-01-26T00:40:41.969Z,37.7990
2024-01-26T00:40:53.033Z,37.7810
2024-01-26T00:41:04.063Z,37.7870
2024-01-26T00:41:15.114Z,37.7690
2024-01-26T00:41:26.178Z,37.7630
2024-01-26T00:41:37.220Z,37.7570
2024-01-26T00:41:48.282Z,37.7690
2024-01-26T00:41:59.352Z,37.7630
2024-01-26T00:42:10.441Z,37.7400
2024-01-26T00:42:21.466Z,37.7510
2024-01-26T00:42:32.552Z,37.7570
2024-01-26T00:42:43.654Z,37.7720
2024-01-26T00:42:54.763Z,37.7720
2024-01-26T00:43:05.891Z,37.7720
2024-01-26T00:43:17.001Z,37.7780
2024-01-26T00:43:28.015Z,37.7840
2024-01-26T00:43:39.127Z,37.7720
2024-01-26T00:43:50.181Z,37.7780
2024-01-26T00:44:01.247Z,37.7720
2024-01-26T00:44:12.309Z,37.7630
2024-01-26T00:44:23.365Z,37.7510
2024-01-26T00:44:34.421Z,37.7500
2024-01-26T00:44:45.486Z,37.7780
2024-01-26T00:44:56.555Z,37.7610
2024-01-26T00:45:07.629Z,37.7550
2024-01-26T00:45:18.999Z,37.7550
2024-01-26T00:45:30.186Z,37.7780
2024-01-26T00:45:41.255Z,37.7670
2024-01-26T00:45:52.362Z,37.7670
2024-01-26T00:46:03.642Z,37.7550
2024-01-26T00:46:14.921Z,37.7720
2024-01-26T00:46:25.987Z,37.7670
2024-01-26T00:46:37.035Z,37.7550
2024-01-26T00:46:48.122Z,37.7550
2024-01-26T00:46:59.186Z,37.7550
2024-01-26T00:47:10.240Z,37.7780
2024-01-26T00:47:21.320Z,37.7610
2024-01-26T00:47:32.375Z,37.7550
2024-01-26T00:47:43.543Z,37.7340
2024-01-26T00:47:54.634Z,37.7290
2024-01-26T00:48:05.838Z,37.7250
2024-01-26T00:48:17.025Z,37.7380
2024-01-26T00:48:28.166Z,37.7610
2024-01-26T00:48:42.031Z,37.7610
2024-01-26T00:48:53.568Z,37.8650
2024-01-26T00:49:05.261Z,37.8160
2024-01-26T00:49:16.400Z,37.8010
2024-01-26T00:49:34.562Z,37.7670
2024-01-26T00:49:49.411Z,37.9450
2024-01-26T00:50:01.469Z,38.0400
2024-01-26T00:50:12.737Z,37.9390
2024-01-26T00:50:24.279Z,37.8580
2024-01-26T00:50:35.513Z,37.7990
2024-01-26T00:50:46.590Z,37.7720
2024-01-26T00:50:57.654Z,37.7380
2024-01-26T00:51:08.682Z,37.7230
2024-01-26T00:51:19.809Z,37.7230
2024-01-26T00:51:30.904Z,37.7110
2024-01-26T00:51:41.958Z,37.6870
2024-01-26T00:51:53.040Z,37.6870
2024-01-26T00:52:04.686Z,37.7170
2024-01-26T00:52:15.720Z,37.6940
2024-01-26T00:52:26.751Z,37.6870
2024-01-26T00:52:37.794Z,37.6870
2024-01-26T00:52:48.847Z,37.6700
2024-01-26T00:52:59.887Z,37.6700
2024-01-26T00:53:10.930Z,37.6700
2024-01-26T00:53:21.984Z,37.6760
2024-01-26T00:53:33.034Z,37.6590
2024-01-26T00:53:44.096Z,37.6590
2024-01-26T00:53:55.141Z,37.6640
2024-01-26T00:54:06.226Z,37.6590
2024-01-26T00:54:17.270Z,37.6640
2024-01-26T00:54:28.337Z,37.6590
2024-01-26T00:54:39.470Z,37.6640
2024-01-26T00:54:50.543Z,37.6640
2024-01-26T00:55:01.757Z,37.6590
2024-01-26T00:55:13.200Z,37.6580
2024-01-26T00:55:24.262Z,37.6410
2024-01-26T00:55:35.296Z,37.6410
2024-01-26T00:55:46.371Z,37.6410
2024-01-26T00:55:57.436Z,37.6300
2024-01-26T00:56:08.518Z,37.6300
2024-01-26T00:56:19.561Z,37.6410
2024-01-26T00:56:30.595Z,37.6300
2024-01-26T00:56:41.639Z,37.6300
2024-01-26T00:56:52.705Z,37.6300
2024-01-26T00:57:03.915Z,37.6300
2024-01-26T00:57:14.987Z,37.6300
2024-01-26T00:57:26.061Z,37.6360
2024-01-26T00:57:37.122Z,37.6420
2024-01-26T00:57:48.187Z,37.6300
2024-01-26T00:57:59.280Z,37.6530
2024-01-26T00:58:10.435Z,37.6470
2024-01-26T00:58:21.500Z,37.6470
2024-01-26T00:58:32.566Z,37.6470
2024-01-26T00:58:43.604Z,37.6420
2024-01-26T00:58:54.676Z,37.6420
2024-01-26T00:59:05.724Z,37.6420
2024-01-26T00:59:16.772Z,37.6360
2024-01-26T00:59:27.814Z,37.6300
2024-01-26T00:59:38.879Z,37.6360
2024-01-26T00:59:49.954Z,37.6470
2024-01-26T01:00:00.986Z,37.6360
2024-01-26T01:00:12.056Z,37.6360
2024-01-26T01:00:23.160Z,37.6300
2024-01-26T01:00:34.439Z,37.6420
2024-01-26T01:00:45.508Z,37.6420
2024-01-26T01:00:56.580Z,37.6300
2024-01-26T01:01:07.755Z,37.6190
2024-01-26T01:01:18.920Z,37.6240
2024-01-26T01:01:30.217Z,37.6360
2024-01-26T01:01:41.371Z,37.6360
2024-01-26T01:01:52.572Z,37.6240
2024-01-26T01:02:03.890Z,37.6130
2024-01-26T01:02:15.310Z,37.6240
2024-01-26T01:02:26.390Z,37.6130
2024-01-26T01:02:37.428Z,37.6070
2024-01-26T01:02:48.527Z,37.6130
2024-01-26T01:02:59.604Z,37.6130
2024-01-26T01:03:10.707Z,37.6130
2024-01-26T01:03:21.855Z,37.6000
2024-01-26T01:03:32.951Z,37.5940
2024-01-26T01:03:43.996Z,37.5820
2024-01-26T01:03:55.061Z,37.5770
2024-01-26T01:04:06.139Z,37.5600
2024-01-26T01:04:17.220Z,37.5710
2024-01-26T01:04:28.262Z,37.5770
2024-01-26T01:04:39.332Z,37.5770
2024-01-26T01:04:50.381Z,37.5770
2024-01-26T01:05:01.538Z,37.5880
2024-01-26T01:05:12.647Z,37.5940
2024-01-26T01:05:23.876Z,37.5880
2024-01-26T01:05:35.007Z,37.5880
2024-01-26T01:05:46.181Z,37.5770
2024-01-26T01:05:57.708Z,37.5650
2024-01-26T01:06:08.882Z,37.5650
2024-01-26T01:06:20.000Z,37.5670
2024-01-26T01:06:31.075Z,37.5560
2024-01-26T01:06:42.165Z,37.5600
2024-01-26T01:06:53.265Z,37.5600
2024-01-26T01:07:04.372Z,37.5540
2024-01-26T01:07:15.424Z,37.5650
2024-01-26T01:07:26.485Z,37.5720
2024-01-26T01:07:37.572Z,37.5940
2024-01-26T01:07:48.601Z,37.5890
2024-01-26T01:07:59.630Z,37.5770
2024-01-26T01:08:10.671Z,37.5830
2024-01-26T01:08:21.744Z,37.5940
2024-01-26T01:08:32.825Z,37.5940
2024-01-26T01:08:43.875Z,37.6000
2024-01-26T01:08:54.997Z,37.5890
2024-01-26T01:09:06.137Z,37.6070
2024-01-26T01:09:17.171Z,37.6070
2024-01-26T01:09:28.211Z,37.6130
2024-01-26T01:09:39.273Z,37.6070
2024-01-26T01:09:50.310Z,37.5890
2024-01-26T01:10:01.407Z,37.6000
2024-01-26T01:10:12.468Z,37.6000
2024-01-26T01:10:23.492Z,37.5890
2024-01-26T01:10:34.573Z,37.6070
2024-01-26T01:10:45.628Z,37.6000
2024-01-26T01:10:56.675Z,37.5890
2024-01-26T01:11:07.709Z,37.5940
2024-01-26T01:11:18.921Z,37.5880
2024-01-26T01:11:29.996Z,37.5820
2024-01-26T01:11:41.030Z,37.5770
2024-01-26T01:11:52.127Z,37.5710
2024-01-26T01:12:03.255Z,37.5820
2024-01-26T01:12:14.372Z,37.5890
2024-01-26T01:12:25.431Z,37.5940
2024-01-26T01:12:36.496Z,37.6000
2024-01-26T01:12:47.546Z,37.6070
2024-01-26T01:12:58.601Z,37.6000
2024-01-26T01:13:09.652Z,37.6070
2024-01-26T01:13:20.690Z,37.6190
2024-01-26T01:13:31.765Z,37.6070
2024-01-26T01:13:42.869Z,37.6070
2024-01-26T01:13:53.890Z,37.6190
2024-01-26T01:14:04.949Z,37.6000
2024-01-26T01:14:16.000Z,37.6130
2024-01-26T01:14:27.096Z,37.6130
2024-01-26T01:14:38.319Z,37.6240
2024-01-26T01:14:49.438Z,37.6530
2024-01-26T01:15:00.556Z,37.6300
2024-01-26T01:15:11.639Z,37.6300
2024-01-26T01:15:22.698Z,37.5940
2024-01-26T01:15:33.748Z,37.5940
2024-01-26T01:15:44.862Z,37.5730
2024-01-26T01:15:55.900Z,37.5730
2024-01-26T01:16:06.965Z,37.5620
2024-01-26T01:16:18.031Z,37.5500
2024-01-26T01:16:29.075Z,37.5540
2024-01-26T01:16:40.110Z,37.5540
2024-01-26T01:16:51.178Z,37.5710
2024-01-26T01:17:02.244Z,37.5650
2024-01-26T01:17:13.311Z,37.5670
2024-01-26T01:17:24.349Z,37.5440
2024-01-26T01:17:35.425Z,37.5220
2024-01-26T01:17:46.632Z,37.5500
2024-01-26T01:17:57.791Z,37.5390
2024-01-26T01:18:09.078Z,37.5370
2024-01-26T01:18:20.459Z,37.5540
2024-01-26T01:18:31.736Z,37.5880
2024-01-26T01:18:43.212Z,37.5880
2024-01-26T01:18:54.771Z,37.5940
2024-01-26T01:19:06.388Z,37.5940
2024-01-26T01:19:17.712Z,37.5940
2024-01-26T01:19:28.834Z,37.5940
2024-01-26T01:19:39.995Z,37.5770
2024-01-26T01:19:51.068Z,37.5770
2024-01-26T01:20:02.120Z,37.5600
2024-01-26T01:20:13.988Z,37.5480
2024-01-26T01:20:25.080Z,37.5710
2024-01-26T01:20:36.209Z,37.5600
2024-01-26T01:20:47.373Z,37.5480
2024-01-26T01:20:58.455Z,37.5310
2024-01-26T01:21:09.513Z,37.5420
2024-01-26T01:21:20.539Z,37.5370
2024-01-26T01:21:31.631Z,37.5370
2024-01-26T01:21:42.650Z,37.5310
2024-01-26T01:21:53.710Z,37.5370
2024-01-26T01:22:04.772Z,37.5540
2024-01-26T01:22:15.852Z,37.5540
2024-01-26T01:22:26.894Z,37.5660
2024-01-26T01:22:37.945Z,37.5600
2024-01-26T01:22:49.100Z,37.5660
2024-01-26T01:23:00.156Z,37.5750
2024-01-26T01:23:11.221Z,37.5640
2024-01-26T01:23:22.296Z,37.5720
2024-01-26T01:23:33.391Z,37.5720
2024-01-26T01:23:44.490Z,37.5540
2024-01-26T01:23:55.633Z,37.5540
2024-01-26T01:24:06.799Z,37.5420
2024-01-26T01:24:17.903Z,37.5310
2024-01-26T01:24:28.965Z,37.5050
2024-01-26T01:24:40.024Z,37.5050
2024-01-26T01:24:51.062Z,37.4840
2024-01-26T01:25:02.142Z,37.5010
2024-01-26T01:25:13.197Z,37.5010
2024-01-26T01:25:24.283Z,37.4900
2024-01-26T01:25:35.336Z,37.4900
2024-01-26T01:25:46.456Z,37.4780
2024-01-26T01:25:57.528Z,37.4900
2024-01-26T01:26:08.601Z,37.4950
2024-01-26T01:26:19.668Z,37.4950
2024-01-26T01:26:30.746Z,37.4840
2024-01-26T01:26:41.823Z,37.4900
2024-01-26T01:26:52.905Z,37.4780
2024-01-26T01:27:04.157Z,37.4900
2024-01-26T01:27:15.387Z,37.4960
2024-01-26T01:27:26.435Z,37.5020
2024-01-26T01:27:37.487Z,37.4960
2024-01-26T01:27:48.557Z,37.4900
2024-01-26T01:27:59.614Z,37.4900
2024-01-26T01:28:10.664Z,37.4900
2024-01-26T01:28:21.716Z,37.4900
2024-01-26T01:28:32.757Z,37.4890
2024-01-26T01:28:43.791Z,37.4900
2024-01-26T01:28:54.847Z,37.4680
2024-01-26T01:29:05.987Z,37.4560
2024-01-26T01:29:16.977Z,37.4430
2024-01-26T01:29:28.072Z,37.4260
2024-01-26T01:29:39.154Z,37.4140
2024-01-26T01:29:50.237Z,37.4080
2024-01-26T01:30:01.395Z,37.3910
2024-01-26T01:30:12.591Z,37.3970
2024-01-26T01:30:23.693Z,37.3910
2024-01-26T01:30:34.740Z,37.3860
2024-01-26T01:30:45.786Z,37.3800
2024-01-26T01:30:56.820Z,37.3860
2024-01-26T01:31:07.918Z,37.3710
2024-01-26T01:31:19.015Z,37.3540
2024-01-26T01:31:30.065Z,37.3480
2024-01-26T01:31:41.108Z,37.3310
2024-01-26T01:31:52.151Z,37.3310
2024-01-26T01:32:03.261Z,37.3180
2024-01-26T01:32:14.255Z,37.3120
2024-01-26T01:32:25.326Z,37.3060
2024-01-26T01:32:36.586Z,37.3010
2024-01-26T01:32:47.949Z,37.3120
2024-01-26T01:32:59.031Z,37.2990
2024-01-26T01:33:10.230Z,37.2930
2024-01-26T01:33:21.385Z,37.2990
2024-01-26T01:33:32.639Z,37.2990
2024-01-26T01:33:43.978Z,37.2990
2024-01-26T01:33:55.193Z,37.2930
2024-01-26T01:34:07.030Z,37.3100
2024-01-26T01:34:18.288Z,37.3100
2024-01-26T01:34:29.397Z,37.2820
2024-01-26T01:34:40.481Z,37.2760
2024-01-26T01:34:51.543Z,37.2520
2024-01-26T01:35:02.601Z,37.2400
2024-01-26T01:35:13.639Z,37.2350
2024-01-26T01:35:24.702Z,37.2240
2024-01-26T01:35:35.788Z,37.2120
2024-01-26T01:35:46.873Z,37.2180
2024-01-26T01:35:57.979Z,37.2070
2024-01-26T01:36:09.110Z,37.2070
2024-01-26T01:36:20.176Z,37.2070
2024-01-26T01:36:31.217Z,37.1960
2024-01-26T01:36:42.259Z,37.1960
2024-01-26T01:36:53.306Z,37.1900
2024-01-26T01:37:04.355Z,37.1790
2024-01-26T01:37:15.380Z,37.1880
2024-01-26T01:37:26.437Z,37.1490
2024-01-26T01:37:37.482Z,37.1490
2024-01-26T01:37:48.544Z,37.1490
2024-01-26T01:37:59.594Z,37.1490
2024-01-26T01:38:10.622Z,37.1260
2024-01-26T01:38:21.669Z,37.1250
2024-01-26T01:38:32.733Z,37.1010
2024-01-26T01:38:43.811Z,37.0950
2024-01-26T01:38:54.854Z,37.0840
2024-01-26T01:39:06.013Z,37.0900
2024-01-26T01:39:17.167Z,37.0900
2024-01-26T01:39:28.212Z,37.0730
2024-01-26T01:39:39.281Z,37.0560
2024-01-26T01:39:50.338Z,37.0440
2024-01-26T01:40:01.392Z,37.0330
2024-01-26T01:40:12.433Z,37.0150
2024-01-26T01:40:23.478Z,36.9800
2024-01-26T01:40:34.529Z,36.9750
2024-01-26T01:40:45.583Z,36.9580
2024-01-26T01:40:56.645Z,36.9630
2024-01-26T01:41:07.681Z,36.9630
2024-01-26T01:41:18.772Z,36.9690
2024-01-26T01:41:29.818Z,36.9520
2024-01-26T01:41:40.908Z,36.9350
2024-01-26T01:41:51.966Z,36.9350
2024-01-26T01:42:03.154Z,36.9350
2024-01-26T01:42:14.204Z,36.9050
2024-01-26T01:42:25.261Z,36.8940
2024-01-26T01:42:36.317Z,36.8830
2024-01-26T01:42:47.371Z,36.8880
2024-01-26T01:42:58.430Z,36.8470
2024-01-26T01:43:09.487Z,36.8440
2024-01-26T01:43:20.529Z,36.8440
2024-01-26T01:43:31.612Z,36.8330
2024-01-26T01:43:42.663Z,36.8160
2024-01-26T01:43:53.721Z,36.8130
2024-01-26T01:44:04.812Z,36.8070
2024-01-26T01:44:15.862Z,36.8070
2024-01-26T01:44:26.974Z,36.8190
2024-01-26T01:44:38.040Z,36.8070
2024-01-26T01:44:49.148Z,36.7790
2024-01-26T01:45:00.330Z,36.7680
2024-01-26T01:45:11.475Z,36.7640
2024-01-26T01:45:22.537Z,36.7350
2024-01-26T01:45:33.599Z,36.7000
2024-01-26T01:45:44.636Z,36.6880
2024-01-26T01:45:55.681Z,36.6660
2024-01-26T01:46:06.760Z,36.6490
2024-01-26T01:46:17.802Z,36.6490
2024-01-26T01:46:28.897Z,36.6360
2024-01-26T01:46:39.946Z,36.6360
2024-01-26T01:46:50.985Z,36.6250
2024-01-26T01:47:03.232Z,36.6420
2024-01-26T01:47:14.276Z,36.6130
2024-01-26T01:47:25.326Z,36.6250
2024-01-26T01:47:36.431Z,36.5960
2024-01-26T01:47:47.553Z,36.5740
2024-01-26T01:47:58.993Z,36.5680
2024-01-26T01:48:10.253Z,36.5910
2024-01-26T01:48:21.654Z,36.5740
2024-01-26T01:48:32.929Z,36.5790
2024-01-26T01:48:44.219Z,36.5820
2024-01-26T01:48:55.901Z,36.5760
2024-01-26T01:49:07.179Z,36.5650
2024-01-26T01:49:18.335Z,36.5600
2024-01-26T01:49:29.425Z,36.5540
2024-01-26T01:49:40.604Z,36.5540
2024-01-26T01:49:51.730Z,36.5640
2024-01-26T01:50:02.778Z,36.5470
2024-01-26T01:50:13.812Z,36.5350
2024-01-26T01:50:24.865Z,36.5350
2024-01-26T01:50:35.959Z,36.5230
2024-01-26T01:50:47.098Z,36.5280
2024-01-26T01:50:58.167Z,36.5280
2024-01-26T01:51:09.257Z,36.5110
2024-01-26T01:51:20.319Z,36.5060
2024-01-26T01:51:31.447Z,36.5000
2024-01-26T01:51:42.557Z,36.4720
2024-01-26T01:51:53.582Z,36.4490
2024-01-26T01:52:04.642Z,36.4420
2024-01-26T01:52:15.686Z,36.4310
2024-01-26T01:52:26.751Z,36.4080
2024-01-26T01:52:37.814Z,36.4020
2024-01-26T01:52:48.884Z,36.3800
2024-01-26T01:52:59.929Z,36.3630
2024-01-26T01:53:10.975Z,36.3530
2024-01-26T01:53:22.035Z,36.3480
2024-01-26T01:53:33.123Z,36.3230
2024-01-26T01:53:44.238Z,36.3180
2024-01-26T01:53:55.264Z,36.3010
2024-01-26T01:54:06.349Z,36.2840
2024-01-26T01:54:17.392Z,36.2580
2024-01-26T01:54:28.451Z,36.2770
2024-01-26T01:54:39.507Z,36.2930
2024-01-26T01:54:50.575Z,36.2990
2024-01-26T01:55:03.382Z,36.2690
2024-01-26T01:55:15.071Z,36.3500
2024-01-26T01:55:26.112Z,36.2900
2024-01-26T01:55:37.152Z,36.2730
2024-01-26T01:55:48.213Z,36.2580
2024-01-26T01:55:59.267Z,36.2560
2024-01-26T01:56:10.317Z,36.2340
2024-01-26T01:56:21.406Z,36.2620
2024-01-26T01:56:32.507Z,36.2210
2024-01-26T01:56:43.608Z,36.2280
2024-01-26T01:56:54.723Z,36.2210
2024-01-26T01:57:05.879Z,36.2210
2024-01-26T01:57:16.999Z,36.2150
2024-01-26T01:57:28.048Z,36.2130
2024-01-26T01:57:39.095Z,36.1960
2024-01-26T01:57:50.134Z,36.1770
2024-01-26T01:58:01.191Z,36.1550
2024-01-26T01:58:12.244Z,36.1380
2024-01-26T01:58:23.297Z,36.1340
2024-01-26T01:58:34.354Z,36.1340
2024-01-26T01:58:45.414Z,36.0970
2024-01-26T01:58:56.476Z,36.1150
2024-01-26T01:59:07.548Z,36.1000
2024-01-26T01:59:18.626Z,36.0830
2024-01-26T01:59:29.681Z,36.0540
2024-01-26T01:59:40.791Z,36.0250
2024-01-26T01:59:51.891Z,36.0250
2024-01-26T02:00:03.038Z,36.0190
2024-01-26T02:00:14.138Z,36.0130
2024-01-26T02:00:25.191Z,36.0020
2024-01-26T02:00:36.479Z,35.9670
2024-01-26T02:00:48.010Z,35.9950
2024-01-26T02:00:59.448Z,35.9780
2024-01-26T02:01:11.028Z,35.9630
2024-01-26T02:01:22.170Z,35.9460
2024-01-26T02:01:33.308Z,35.9060
2024-01-26T02:01:44.489Z,35.9030
2024-01-26T02:01:55.586Z,35.8860
2024-01-26T02:02:06.651Z,35.8920
2024-01-26T02:02:17.714Z,35.8810
2024-01-26T02:02:28.765Z,35.8690
2024-01-26T02:02:39.886Z,35.8530
2024-01-26T02:02:50.961Z,35.8360
2024-01-26T02:03:02.040Z,35.8320
2024-01-26T02:03:13.096Z,35.8120
2024-01-26T02:03:24.121Z,35.8060
2024-01-26T02:03:35.180Z,35.8120
2024-01-26T02:03:46.238Z,35.8060
2024-01-26T02:03:57.306Z,35.7950
2024-01-26T02:04:08.339Z,35.8070
2024-01-26T02:04:19.475Z,35.7840
2024-01-26T02:04:30.554Z,35.8070
2024-01-26T02:04:41.631Z,35.8010
2024-01-26T02:04:52.898Z,35.7950
2024-01-26T02:05:04.260Z,35.7880
2024-01-26T02:05:15.545Z,35.7940
2024-01-26T02:05:26.917Z,35.7940
2024-01-26T02:05:38.129Z,35.7670
2024-01-26T02:05:49.258Z,35.7620
2024-01-26T02:06:00.478Z,35.7530
2024-01-26T02:06:11.699Z,35.7300
2024-01-26T02:06:22.975Z,35.7470
2024-01-26T02:06:34.280Z,35.7360
2024-01-26T02:06:45.374Z,35.7420
2024-01-26T02:06:56.428Z,35.7360
2024-01-26T02:07:07.479Z,35.7250
2024-01-26T02:07:18.530Z,35.7130
2024-01-26T02:07:29.626Z,35.7040
2024-01-26T02:07:40.666Z,35.7040
2024-01-26T02:07:51.824Z,35.6700
2024-01-26T02:08:03.072Z,35.6810
2024-01-26T02:08:14.125Z,35.6590
2024-01-26T02:08:25.177Z,35.6460
2024-01-26T02:08:36.247Z,35.6410
2024-01-26T02:08:47.312Z,35.6240
2024-01-26T02:08:58.420Z,35.6240
2024-01-26T02:09:09.602Z,35.6240
2024-01-26T02:09:20.641Z,35.6070
2024-01-26T02:09:31.703Z,35.5950
2024-01-26T02:09:42.758Z,35.5840
2024-01-26T02:09:53.786Z,35.5790
2024-01-26T02:10:04.855Z,35.5550
2024-01-26T02:10:15.897Z,35.5210
2024-01-26T02:10:26.952Z,35.5270
2024-01-26T02:10:38.012Z,35.5210
2024-01-26T02:10:49.091Z,35.5150
2024-01-26T02:11:00.152Z,35.5150
2024-01-26T02:11:11.204Z,35.5150
2024-01-26T02:11:22.310Z,35.5100
2024-01-26T02:11:33.409Z,35.5320
2024-01-26T02:11:44.521Z,35.5100
2024-01-26T02:11:55.617Z,35.4870
2024-01-26T02:12:06.655Z,35.4750
2024-01-26T02:12:17.663Z,35.4460
2024-01-26T02:12:28.747Z,35.4410
2024-01-26T02:12:39.796Z,35.4460
2024-01-26T02:12:50.859Z,35.4180
2024-01-26T02:13:01.892Z,35.4240
2024-01-26T02:13:12.953Z,35.3990
2024-01-26T02:13:23.996Z,35.4010
2024-01-26T02:13:35.051Z,35.3890
2024-01-26T02:13:46.154Z,35.3890
2024-01-26T02:13:57.208Z,35.3830
2024-01-26T02:14:08.249Z,35.3830
2024-01-26T02:14:19.323Z,35.3660
2024-01-26T02:14:30.432Z,35.3660
2024-01-26T02:14:41.519Z,35.3830
2024-01-26T02:14:52.571Z,35.3770